Time;durP1;ratioP1;P1;durP2;ratioP2;P2;SDS_P1;SDS_P2;PMS_P1;PMS_P2;Temp;Humidity;BMP_temperature;BMP_pressure;BME280_temperature;BME280_humidity;BME280_pressure;Samples;Min_cycle;Max_cycle;Signal;HPM_P1;HPM_P2
2020/12/24 00:01:03;;;;;;;1.70;1.60;;;;;;;8.00;100.00;97521.31;5010264;28;20738;-71
2020/12/24 00:03:30;;;;;;;1.20;1.20;;;;;;;8.04;100.00;97508.66;5013326;28;20204;-69
2020/12/24 00:05:58;;;;;;;1.67;1.43;;;;;;;8.03;100.00;97486.69;5010796;28;20561;-70
2020/12/24 00:08:25;;;;;;;2.17;1.40;;;;;;;8.06;100.00;97502.19;5011492;28;20224;-69
2020/12/24 00:10:52;;;;;;;1.67;1.57;;;;;;;7.96;100.00;97517.34;5009103;28;20232;-68
2020/12/24 00:13:19;;;;;;;1.30;1.20;;;;;;;7.91;100.00;97519.66;5010607;28;20574;-69
2020/12/24 00:15:46;;;;;;;1.40;1.33;;;;;;;7.91;100.00;97496.72;5008000;28;20205;-69
2020/12/24 00:18:17;;;;;;;1.70;1.60;;;;;;;7.94;100.00;97490.28;5007716;28;20290;-69
2020/12/24 00:20:44;;;;;;;1.47;1.40;;;;;;;8.07;100.00;97485.38;5011917;28;20646;-68
2020/12/24 00:23:12;;;;;;;2.03;1.63;;;;;;;8.07;100.00;97487.22;5007574;28;20205;-68
2020/12/24 00:25:39;;;;;;;1.63;1.53;;;;;;;7.98;100.00;97494.28;5007537;28;20211;-70
2020/12/24 00:28:07;;;;;;;1.43;1.43;;;;;;;8.00;100.00;97494.13;5008076;28;20237;-68
2020/12/24 00:30:34;;;;;;;1.27;1.10;;;;;;;7.95;100.00;97500.72;5012241;28;20642;-69
2020/12/24 00:33:01;;;;;;;2.47;1.37;;;;;;;7.91;100.00;97520.44;5004504;28;20717;-69
2020/12/24 00:35:28;;;;;;;1.23;1.23;;;;;;;7.87;100.00;97515.66;5005168;28;20700;-69
2020/12/24 00:37:55;;;;;;;2.87;1.23;;;;;;;7.97;100.00;97506.66;5008633;28;20232;-69
2020/12/24 00:40:24;;;;;;;1.10;1.10;;;;;;;7.96;100.00;97512.91;5015422;28;20205;-69
2020/12/24 00:42:51;;;;;;;1.30;1.20;;;;;;;7.96;100.00;97512.91;5011652;28;20200;-70
2020/12/24 00:45:18;;;;;;;1.20;1.20;;;;;;;7.87;100.00;97507.75;5010993;28;20507;-69
2020/12/24 00:47:45;;;;;;;1.53;1.47;;;;;;;7.99;100.00;97498.56;5007495;28;20825;-68
2020/12/24 00:50:12;;;;;;;1.13;1.03;;;;;;;7.88;100.00;97502.31;5011047;28;20253;-69
2020/12/24 00:52:39;;;;;;;1.27;1.20;;;;;;;7.96;100.00;97480.41;5014423;28;20256;-68
2020/12/24 00:55:06;;;;;;;1.50;1.17;;;;;;;7.88;100.00;97469.84;5008773;28;20228;-68
2020/12/24 00:57:33;;;;;;;1.53;1.43;;;;;;;7.81;100.00;97470.47;5001541;28;20235;-69
2020/12/24 01:00:01;;;;;;;1.27;1.10;;;;;;;7.95;100.00;97460.28;5011891;28;20204;-69
2020/12/24 01:02:27;;;;;;;1.00;1.00;;;;;;;7.86;100.00;97461.25;5009247;28;20208;-69
2020/12/24 01:04:54;;;;;;;1.20;1.10;;;;;;;7.80;100.00;97460.91;5017234;28;20204;-72
2020/12/24 01:07:21;;;;;;;1.10;1.10;;;;;;;7.87;100.00;97470.81;5015728;28;20224;-69
2020/12/24 01:09:48;;;;;;;1.57;1.27;;;;;;;7.87;100.00;97476.09;5015843;28;20213;-70
2020/12/24 01:12:15;;;;;;;0.97;0.90;;;;;;;7.86;100.00;97469.97;5004021;28;20205;-69
2020/12/24 01:14:44;;;;;;;0.83;0.83;;;;;;;7.88;100.00;97472.47;5007686;28;20216;-70
2020/12/24 01:17:11;;;;;;;0.80;0.80;;;;;;;7.92;100.00;97487.81;5017238;28;20739;-70
2020/12/24 01:19:38;;;;;;;1.67;0.90;;;;;;;7.90;100.00;97484.50;5008851;28;20224;-69
2020/12/24 01:22:05;;;;;;;0.90;0.87;;;;;;;7.94;100.00;97475.28;5016264;28;20204;-71
2020/12/24 01:24:33;;;;;;;1.07;0.90;;;;;;;7.95;100.00;97476.13;5020792;28;20204;-70
2020/12/24 01:27:00;;;;;;;1.37;1.10;;;;;;;7.90;100.00;97483.69;5016662;28;20213;-69
2020/12/24 01:29:27;;;;;;;0.97;0.97;;;;;;;7.86;100.00;97508.75;5014754;28;20251;-71
2020/12/24 01:31:54;;;;;;;0.93;0.83;;;;;;;7.92;100.00;97492.28;5014866;28;20219;-68
2020/12/24 01:34:21;;;;;;;0.87;0.87;;;;;;;7.98;100.00;97489.00;5013044;28;20220;-68
2020/12/24 01:36:48;;;;;;;1.70;1.20;;;;;;;7.89;100.00;97489.94;5016443;28;20699;-68
2020/12/24 01:39:15;;;;;;;3.50;1.20;;;;;;;7.90;100.00;97489.78;5014065;28;20604;-69
2020/12/24 01:41:42;;;;;;;0.80;0.80;;;;;;;7.89;100.00;97487.31;5012231;28;20211;-70
2020/12/24 01:44:09;;;;;;;1.00;0.70;;;;;;;7.90;100.00;97502.97;5012383;28;20212;-68
2020/12/24 01:46:37;;;;;;;0.57;0.57;;;;;;;7.93;100.00;97505.28;5013395;28;20212;-70
2020/12/24 01:49:20;;;;;;;2.83;0.87;;;;;;;8.03;100.00;97489.34;5010068;28;20299;-69
2020/12/24 01:51:50;;;;;;;1.33;1.03;;;;;;;7.96;100.00;97483.88;5003911;28;20216;-70
2020/12/24 01:54:18;;;;;;;0.83;0.83;;;;;;;7.89;100.00;97477.56;5002705;28;20224;-70
2020/12/24 01:56:46;;;;;;;0.77;0.70;;;;;;;7.90;100.00;97481.06;5001647;28;20322;-69
2020/12/24 01:59:15;;;;;;;1.20;1.10;;;;;;;7.81;100.00;97481.03;5009432;28;20707;-68
2020/12/24 02:01:44;;;;;;;0.70;0.70;;;;;;;7.80;100.00;97492.56;5016513;28;20205;-69
2020/12/24 02:04:11;;;;;;;0.80;0.80;;;;;;;7.77;100.00;97489.41;5012284;28;20200;-70
2020/12/24 02:06:40;;;;;;;0.90;0.70;;;;;;;7.82;100.00;97493.22;5007168;28;20209;-68
2020/12/24 02:09:07;;;;;;;1.37;1.27;;;;;;;7.81;100.00;97494.22;5016109;28;20220;-70
2020/12/24 02:11:34;;;;;;;1.70;1.27;;;;;;;7.72;100.00;97495.16;5015387;28;20211;-68
2020/12/24 02:14:02;;;;;;;1.30;0.93;;;;;;;7.73;100.00;97499.44;5009894;28;20206;-70
2020/12/24 02:16:29;;;;;;;1.00;0.90;;;;;;;7.73;100.00;97501.25;5009109;28;20216;-69
2020/12/24 02:18:56;;;;;;;0.83;0.83;;;;;;;7.62;100.00;97505.84;4989735;28;20249;-70
2020/12/24 02:21:24;;;;;;;0.87;0.83;;;;;;;7.64;100.00;97518.84;4990477;28;20212;-72
2020/12/24 02:23:51;;;;;;;1.20;1.20;;;;;;;7.66;100.00;97511.59;4993632;28;20202;-69
2020/12/24 02:26:18;;;;;;;1.63;1.20;;;;;;;7.64;100.00;97497.75;4997519;28;20201;-72
2020/12/24 02:28:45;;;;;;;1.30;1.20;;;;;;;7.46;100.00;97506.56;4994156;28;20228;-72
2020/12/24 02:31:12;;;;;;;1.00;1.00;;;;;;;7.43;100.00;97500.78;4994709;28;20204;-71
2020/12/24 02:33:39;;;;;;;1.23;1.13;;;;;;;7.31;100.00;97487.03;4990901;28;20581;-70
2020/12/24 02:36:07;;;;;;;0.90;0.90;;;;;;;7.33;100.00;97487.69;4995095;28;20605;-69
2020/12/24 02:38:35;;;;;;;1.10;1.10;;;;;;;7.30;100.00;97491.47;4997036;28;20233;-69
2020/12/24 02:41:02;;;;;;;0.87;0.87;;;;;;;7.37;100.00;97486.41;4992330;28;20209;-70
2020/12/24 02:43:29;;;;;;;1.10;1.00;;;;;;;7.31;100.00;97495.78;4990730;28;20217;-70
2020/12/24 02:45:56;;;;;;;0.77;0.77;;;;;;;7.24;100.00;97495.56;4993006;28;20202;-69
2020/12/24 02:48:23;;;;;;;0.80;0.80;;;;;;;7.24;100.00;97508.72;4993725;28;20217;-69
2020/12/24 02:50:50;;;;;;;2.43;1.20;;;;;;;7.22;100.00;97523.88;4992732;28;20209;-69
2020/12/24 02:53:17;;;;;;;2.20;1.20;;;;;;;7.31;100.00;97521.28;4998700;28;20694;-70
2020/12/24 02:55:46;;;;;;;0.90;0.90;;;;;;;7.33;100.00;97512.25;4993436;28;20205;-69
2020/12/24 02:58:13;;;;;;;0.73;0.73;;;;;;;7.34;100.00;97552.59;4988353;28;20237;-68
2020/12/24 03:00:40;;;;;;;1.53;0.93;;;;;;;7.35;100.00;97526.09;4994288;28;20729;-70
2020/12/24 03:03:07;;;;;;;0.73;0.73;;;;;;;7.37;100.00;97513.59;4994458;28;20232;-69
2020/12/24 03:05:34;;;;;;;2.40;1.20;;;;;;;7.31;100.00;97484.38;4996584;28;20205;-69
2020/12/24 03:08:01;;;;;;;0.90;0.90;;;;;;;7.20;100.00;97467.84;4993596;28;20244;-71
2020/12/24 03:10:28;;;;;;;0.70;0.70;;;;;;;7.14;100.00;97470.28;4994253;28;20232;-69
2020/12/24 03:12:55;;;;;;;0.93;0.93;;;;;;;7.12;100.00;97462.53;4992315;28;20690;-68
2020/12/24 03:15:22;;;;;;;0.60;0.60;;;;;;;7.04;100.00;97429.06;4987695;28;20216;-68
2020/12/24 03:17:49;;;;;;;1.60;0.80;;;;;;;6.99;100.00;97404.16;4992217;28;20708;-68
2020/12/24 03:20:17;;;;;;;0.60;0.60;;;;;;;6.98;100.00;97415.66;4984411;28;20202;-69
2020/12/24 03:22:44;;;;;;;0.63;0.63;;;;;;;6.89;100.00;97415.63;4993358;28;20201;-72
2020/12/24 03:25:11;;;;;;;0.90;0.70;;;;;;;6.85;100.00;97402.94;4984226;28;20225;-70
2020/12/24 03:27:38;;;;;;;2.17;0.87;;;;;;;6.84;100.00;97390.75;4989006;28;20223;-69
2020/12/24 03:30:07;;;;;;;0.80;0.80;;;;;;;6.78;99.07;97397.47;4996822;28;20244;-70
2020/12/24 03:32:35;;;;;;;1.37;0.60;;;;;;;6.68;100.00;97404.63;4985466;28;20207;-70
2020/12/24 03:35:02;;;;;;;1.07;0.80;;;;;;;6.74;100.00;97409.28;4990429;28;20220;-71
2020/12/24 03:37:29;;;;;;;0.73;0.57;;;;;;;6.70;99.30;97400.84;4993011;28;20574;-68
2020/12/24 03:39:56;;;;;;;1.53;1.13;;;;;;;6.70;100.00;97389.50;4989418;28;20293;-70
2020/12/24 03:42:23;;;;;;;0.73;0.70;;;;;;;6.68;100.00;97394.09;4992009;28;20650;-71
2020/12/24 03:44:50;;;;;;;1.33;0.90;;;;;;;6.63;100.00;97390.13;4994147;28;20205;-68
2020/12/24 03:47:18;;;;;;;0.97;0.87;;;;;;;6.62;100.00;97392.91;4988972;28;20210;-71
2020/12/24 03:49:45;;;;;;;1.70;0.97;;;;;;;6.62;99.90;97391.06;4996182;28;20207;-71
2020/12/24 03:52:12;;;;;;;2.50;1.20;;;;;;;6.57;100.00;97395.97;4993135;28;20214;-69
2020/12/24 03:54:39;;;;;;;0.70;0.70;;;;;;;6.54;99.69;97396.28;4992549;28;20220;-70
2020/12/24 03:57:06;;;;;;;1.27;0.80;;;;;;;6.59;99.90;97411.63;4991413;28;20229;-69
2020/12/24 03:59:33;;;;;;;0.80;0.80;;;;;;;6.46;100.00;97431.28;4988662;28;20226;-68
2020/12/24 04:02:00;;;;;;;0.90;0.90;;;;;;;6.48;100.00;97428.50;4988808;28;20465;-70
2020/12/24 04:04:28;;;;;;;0.73;0.73;;;;;;;6.38;100.00;97420.66;4988983;28;20224;-68
2020/12/24 04:06:55;;;;;;;1.37;0.70;;;;;;;6.46;100.00;97426.03;4991248;28;20432;-71
2020/12/24 04:09:22;;;;;;;1.60;0.67;;;;;;;6.46;99.23;97422.56;4987019;28;20713;-69
2020/12/24 04:11:49;;;;;;;2.47;0.80;;;;;;;6.43;99.86;97415.78;4990728;28;20209;-72
2020/12/24 04:14:16;;;;;;;0.50;0.50;;;;;;;6.34;100.00;97429.84;4987493;28;20201;-70
2020/12/24 04:16:43;;;;;;;0.90;0.90;;;;;;;6.39;98.03;97416.25;4985759;28;20477;-70
2020/12/24 04:19:10;;;;;;;0.77;0.63;;;;;;;6.38;100.00;97415.41;4991556;28;20224;-70
2020/12/24 04:21:38;;;;;;;0.60;0.60;;;;;;;6.28;99.52;97428.66;4983964;28;20805;-71
2020/12/24 04:24:05;;;;;;;0.67;0.60;;;;;;;6.31;97.29;97419.63;4993864;28;20239;-71
2020/12/24 04:26:32;;;;;;;0.70;0.70;;;;;;;6.39;96.32;97429.41;4994974;28;20232;-70
2020/12/24 04:28:59;;;;;;;1.10;0.73;;;;;;;6.42;95.54;97429.09;4991515;28;20225;-70
2020/12/24 04:31:26;;;;;;;1.80;0.80;;;;;;;6.30;96.80;97424.09;4993600;28;20210;-69
2020/12/24 04:33:53;;;;;;;1.40;0.97;;;;;;;6.35;93.59;97424.44;4990162;28;20604;-71
2020/12/24 04:36:20;;;;;;;0.50;0.50;;;;;;;6.37;94.96;97435.66;4995071;28;20209;-70
2020/12/24 04:38:48;;;;;;;0.80;0.80;;;;;;;6.34;95.66;97437.75;4995766;28;20235;-71
2020/12/24 04:41:15;;;;;;;0.63;0.60;;;;;;;6.30;93.04;97439.88;4988174;28;20220;-69
2020/12/24 04:43:42;;;;;;;0.70;0.70;;;;;;;6.42;91.16;97429.09;4998594;28;20954;-69
2020/12/24 04:46:12;;;;;;;1.20;1.13;;;;;;;6.36;94.09;97426.09;4990505;28;20362;-71
2020/12/24 04:48:40;;;;;;;0.80;0.80;;;;;;;6.30;93.46;97426.72;4999273;28;20496;-71
2020/12/24 04:51:17;;;;;;;0.80;0.80;;;;;;;6.31;95.77;97430.16;4995672;28;20286;-72
2020/12/24 04:53:45;;;;;;;0.90;0.90;;;;;;;6.33;93.41;97434.31;4996921;28;20205;-72
2020/12/24 04:56:13;;;;;;;1.00;1.00;;;;;;;6.36;93.86;97447.16;4992544;28;20209;-72
2020/12/24 04:58:42;;;;;;;0.53;0.53;;;;;;;6.37;95.98;97440.91;4992463;28;20402;-71
2020/12/24 05:01:17;;;;;;;0.87;0.60;;;;;;;6.40;95.55;97455.56;4991700;28;20206;-69
2020/12/24 05:03:44;;;;;;;0.80;0.80;;;;;;;6.37;98.27;97455.88;4993879;28;20212;-70
2020/12/24 05:06:15;;;;;;;0.70;0.70;;;;;;;6.37;97.21;97463.75;4986447;28;20209;-67
2020/12/24 05:08:50;;;;;;;0.70;0.70;;;;;;;6.39;98.38;97466.25;4987072;28;20230;-69
2020/12/24 05:11:25;;;;;;;1.37;0.67;;;;;;;6.36;99.35;97446.31;4988510;28;20216;-69
2020/12/24 05:13:52;;;;;;;0.50;0.50;;;;;;;6.37;98.59;97458.50;4988979;28;20204;-70
2020/12/24 05:16:19;;;;;;;0.63;0.63;;;;;;;6.40;99.98;97446.84;4990680;28;20535;-69
2020/12/24 05:18:46;;;;;;;0.63;0.63;;;;;;;6.27;100.00;97427.00;4983985;28;20269;-69
2020/12/24 05:21:29;;;;;;;1.50;0.60;;;;;;;6.27;100.00;97426.16;4994796;28;20493;-68
2020/12/24 05:23:56;;;;;;;2.33;0.80;;;;;;;6.25;100.00;97407.91;4988115;28;20214;-68
2020/12/24 05:26:24;;;;;;;0.40;0.40;;;;;;;6.26;100.00;97422.72;4995221;28;20751;-69
2020/12/24 05:28:51;;;;;;;1.07;0.70;;;;;;;6.20;100.00;97429.41;4990335;28;20229;-70
2020/12/24 05:31:32;;;;;;;1.27;1.20;;;;;;;6.26;100.00;97422.72;4993382;28;20216;-68
2020/12/24 05:33:59;;;;;;;0.70;0.70;;;;;;;6.33;100.00;97417.66;4988500;28;20524;-69
2020/12/24 05:36:26;;;;;;;0.83;0.83;;;;;;;6.25;100.00;97423.72;4987784;28;20209;-69
2020/12/24 05:38:53;;;;;;;1.33;1.33;;;;;;;6.21;100.00;97436.31;4986410;28;20253;-69
2020/12/24 05:41:29;;;;;;;1.03;0.70;;;;;;;6.20;100.00;97436.47;4983366;28;20210;-69
2020/12/24 05:43:57;;;;;;;0.70;0.70;;;;;;;6.09;100.00;97434.91;4987758;28;20210;-68
2020/12/24 05:46:24;;;;;;;1.37;0.80;;;;;;;6.04;100.00;97429.22;4987676;28;20209;-68
2020/12/24 05:48:51;;;;;;;1.10;1.00;;;;;;;5.92;100.00;97428.63;4988683;28;20830;-68
2020/12/24 05:51:18;;;;;;;0.87;0.87;;;;;;;5.92;100.00;97441.75;4991268;28;20685;-69
2020/12/24 05:53:46;;;;;;;0.60;0.60;;;;;;;5.86;100.00;97439.69;4987026;28;20372;-69
2020/12/24 05:56:21;;;;;;;1.07;1.00;;;;;;;5.84;100.00;97450.38;4993209;28;20713;-68
2020/12/24 05:58:50;;;;;;;1.10;1.00;;;;;;;5.75;100.00;97444.19;4986598;28;20236;-68
2020/12/24 06:01:18;;;;;;;0.70;0.70;;;;;;;5.71;100.00;97437.56;4983859;28;20209;-69
2020/12/24 06:04:00;;;;;;;1.80;0.83;;;;;;;5.71;100.00;97429.69;4990389;28;20455;-68
2020/12/24 06:06:42;;;;;;;1.43;0.87;;;;;;;5.70;100.00;97430.66;4978330;28;20224;-69
2020/12/24 06:09:13;;;;;;;0.80;0.80;;;;;;;5.68;100.00;97429.16;4990112;28;20229;-69
2020/12/24 06:12:01;;;;;;;1.00;0.60;;;;;;;5.74;100.00;97423.31;4987825;28;20201;-69
2020/12/24 06:14:33;;;;;;;0.70;0.70;;;;;;;5.65;100.00;97412.69;4975797;28;20206;-69
2020/12/24 06:17:05;;;;;;;0.80;0.80;;;;;;;5.70;100.00;97414.09;4985577;28;20455;-69
2020/12/24 06:19:39;;;;;;;0.73;0.73;;;;;;;5.68;100.00;97414.22;4993397;28;20299;-68
2020/12/24 06:22:14;;;;;;;1.10;0.83;;;;;;;5.72;100.00;97412.13;4983368;28;20197;-67
2020/12/24 06:24:41;;;;;;;1.40;0.80;;;;;;;5.67;100.00;97404.66;4993923;28;20615;-68
2020/12/24 06:27:12;;;;;;;1.20;0.80;;;;;;;5.77;100.00;97410.69;4990678;28;20224;-69
2020/12/24 06:29:45;;;;;;;1.47;0.97;;;;;;;5.64;100.00;97407.59;4988622;28;20621;-68
2020/12/24 06:32:12;;;;;;;0.67;0.67;;;;;;;5.76;100.00;97397.72;4988050;28;20210;-70
2020/12/24 06:34:41;;;;;;;0.70;0.70;;;;;;;5.65;100.00;97393.47;4988293;28;20209;-71
2020/12/24 06:37:16;;;;;;;1.67;1.57;;;;;;;5.61;100.00;97386.88;4989641;28;20212;-72
2020/12/24 06:39:45;;;;;;;10.60;8.13;;;;;;;5.60;100.00;97387.84;4987264;28;20561;-69
2020/12/24 06:42:38;;;;;;;2.97;2.40;;;;;;;5.57;100.00;97393.41;4985285;28;20213;-70
2020/12/24 06:45:06;;;;;;;5.20;4.00;;;;;;;5.50;100.00;97409.75;4983520;28;20223;-71
2020/12/24 06:47:34;;;;;;;4.87;4.57;;;;;;;5.66;100.00;97410.91;4990194;28;20200;-70
2020/12/24 06:50:01;;;;;;;4.73;3.87;;;;;;;5.59;100.00;97401.97;4989676;28;20625;-70
2020/12/24 06:52:33;;;;;;;27.73;22.17;;;;;;;5.42;100.00;97398.31;4989115;28;20292;-68
2020/12/24 06:55:12;;;;;;;12.07;10.87;;;;;;;5.44;100.00;97418.19;4981059;28;20694;-69
2020/12/24 06:57:41;;;;;;;27.30;19.73;;;;;;;5.44;100.00;97422.63;4982687;28;20224;-69
2020/12/24 07:00:20;;;;;;;12.10;9.50;;;;;;;5.38;100.00;97410.91;4988826;28;20196;-70
2020/12/24 07:02:47;;;;;;;7.63;5.13;;;;;;;4.95;100.00;97409.69;4985009;28;20630;-71
2020/12/24 07:05:43;;;;;;;2.43;1.00;;;;;;;4.46;100.00;97394.88;4988681;28;20205;-70
2020/12/24 07:08:10;;;;;;;11.20;9.67;;;;;;;4.35;100.00;97386.16;4982238;28;20622;-70
2020/12/24 07:10:44;;;;;;;2.60;1.50;;;;;;;4.35;100.00;97377.47;4988117;28;20201;-71
2020/12/24 07:13:11;;;;;;;26.70;19.50;;;;;;;4.38;100.00;97389.50;4986038;28;20209;-70
2020/12/24 07:15:45;;;;;;;3.70;3.37;;;;;;;4.49;100.00;97394.59;4983641;28;20212;-71
2020/12/24 07:18:13;;;;;;;6.00;5.40;;;;;;;4.54;100.00;97392.38;4986435;28;20225;-70
2020/12/24 07:20:43;;;;;;;2.00;1.83;;;;;;;4.59;100.00;97379.66;4990281;28;20212;-70
2020/12/24 07:23:10;;;;;;;4.17;2.67;;;;;;;4.55;100.00;97391.38;4990526;28;20225;-71
2020/12/24 07:25:37;;;;;;;2.10;1.90;;;;;;;4.49;100.00;97389.34;4987893;28;20697;-70
2020/12/24 07:28:14;;;;;;;2.93;1.67;;;;;;;4.41;100.00;97374.28;4989245;28;20232;-71
2020/12/24 07:30:41;;;;;;;1.93;1.80;;;;;;;4.39;100.00;97368.34;4992497;28;20241;-70
2020/12/24 07:33:09;;;;;;;1.80;1.70;;;;;;;4.30;100.00;97377.06;4986740;28;20290;-70
2020/12/24 07:35:36;;;;;;;2.00;1.37;;;;;;;4.23;100.00;97371.53;4987991;28;20201;-71
2020/12/24 07:38:03;;;;;;;1.43;1.13;;;;;;;4.19;100.00;97357.06;4986807;28;20241;-71
2020/12/24 07:40:32;;;;;;;1.40;1.30;;;;;;;4.22;100.00;97359.41;4991632;28;20205;-70
2020/12/24 07:43:09;;;;;;;2.47;1.40;;;;;;;4.22;100.00;97363.81;4993684;28;20201;-70
2020/12/24 07:45:36;;;;;;;1.27;1.13;;;;;;;4.30;100.00;97349.03;4985115;28;20232;-72
2020/12/24 07:48:11;;;;;;;1.80;1.40;;;;;;;4.20;100.00;97353.47;4993810;28;20228;-70
2020/12/24 07:50:38;;;;;;;1.87;1.50;;;;;;;4.33;100.00;97345.31;4987704;28;20204;-70
2020/12/24 07:53:16;;;;;;;1.20;1.10;;;;;;;4.35;100.00;97344.19;4986535;28;20204;-70
2020/12/24 07:55:44;;;;;;;1.23;1.20;;;;;;;4.43;100.00;97342.69;4988423;28;20206;-70
2020/12/24 07:58:12;;;;;;;1.50;1.40;;;;;;;4.56;100.00;97339.75;4991146;28;20232;-71
2020/12/24 08:00:43;;;;;;;2.00;0.97;;;;;;;4.59;100.00;97339.47;4988698;28;20279;-70
2020/12/24 08:03:13;;;;;;;1.07;1.07;;;;;;;4.69;100.00;97347.28;4988671;28;20239;-71
2020/12/24 08:05:40;;;;;;;2.00;1.20;;;;;;;4.62;100.00;97340.00;4987740;28;20211;-69
2020/12/24 08:08:07;;;;;;;1.87;1.00;;;;;;;4.58;100.00;97340.44;4988430;28;20229;-70
2020/12/24 08:10:39;;;;;;;1.90;1.20;;;;;;;4.55;100.00;97328.41;4987730;28;20689;-70
2020/12/24 08:13:06;;;;;;;1.33;1.23;;;;;;;4.61;100.00;97325.22;4991853;28;20209;-70
2020/12/24 08:15:35;;;;;;;1.87;1.20;;;;;;;4.66;100.00;97331.81;4995809;28;20649;-71
2020/12/24 08:18:03;;;;;;;2.27;1.40;;;;;;;4.70;100.00;97323.53;4992464;28;20232;-71
2020/12/24 08:20:38;;;;;;;0.90;0.90;;;;;;;4.75;100.00;97329.19;4995647;28;20212;-71
2020/12/24 08:23:12;;;;;;;1.50;1.03;;;;;;;4.85;100.00;97328.31;4989111;28;20204;-73
2020/12/24 08:25:39;;;;;;;2.20;1.37;;;;;;;4.90;100.00;97326.06;4993382;28;20685;-71
2020/12/24 08:28:07;;;;;;;1.63;1.40;;;;;;;4.84;100.00;97338.00;4994758;28;20740;-72
2020/12/24 08:30:52;;;;;;;2.00;1.60;;;;;;;4.88;100.00;97339.38;4989652;28;20205;-73
2020/12/24 08:33:19;;;;;;;2.43;1.60;;;;;;;4.99;100.00;97337.53;4998927;28;20227;-74
2020/12/24 08:35:48;;;;;;;1.53;1.40;;;;;;;5.09;100.00;97340.09;4989658;28;20209;-72
2020/12/24 08:38:16;;;;;;;3.17;1.50;;;;;;;5.06;100.00;97335.97;4998264;28;20224;-72
2020/12/24 08:40:43;;;;;;;4.20;1.60;;;;;;;5.07;100.00;97330.56;4988456;28;20202;-71
2020/12/24 08:43:12;;;;;;;1.37;1.27;;;;;;;5.06;100.00;97333.34;4995592;28;20554;-70
2020/12/24 08:45:43;;;;;;;5.47;1.93;;;;;;;5.22;100.00;97328.28;4993080;28;20666;-70
2020/12/24 08:48:11;;;;;;;2.17;1.97;;;;;;;5.21;100.00;97326.66;4991527;28;20605;-72
2020/12/24 08:50:40;;;;;;;1.70;1.40;;;;;;;5.24;100.00;97317.63;4994539;28;20215;-70
2020/12/24 08:53:21;;;;;;;2.17;1.97;;;;;;;5.32;100.00;97314.28;4993049;28;20205;-71
2020/12/24 08:55:48;;;;;;;2.20;2.07;;;;;;;5.36;100.00;97323.50;4992005;28;20713;-71
2020/12/24 08:58:16;;;;;;;2.73;2.00;;;;;;;5.35;100.00;97320.06;4990384;28;20232;-70
2020/12/24 09:00:43;;;;;;;2.63;1.70;;;;;;;5.41;100.00;97313.38;4992701;28;20227;-71
2020/12/24 09:03:26;;;;;;;1.77;1.60;;;;;;;5.51;100.00;97323.84;4992771;28;20202;-70
2020/12/24 09:05:54;;;;;;;2.57;1.50;;;;;;;5.61;100.00;97316.69;4995374;28;20213;-70
2020/12/24 09:08:26;;;;;;;3.50;1.47;;;;;;;5.68;100.00;97316.09;4993179;28;20597;-71
2020/12/24 09:10:53;;;;;;;3.67;2.10;;;;;;;5.75;100.00;97317.19;4993382;28;20646;-70
2020/12/24 09:13:20;;;;;;;2.33;1.87;;;;;;;5.86;100.00;97308.22;4992743;28;20237;-70
2020/12/24 09:15:47;;;;;;;2.63;1.50;;;;;;;5.95;100.00;97302.06;4998139;28;20211;-70
2020/12/24 09:18:17;;;;;;;2.33;2.13;;;;;;;6.07;100.00;97306.13;4986578;28;20661;-69
2020/12/24 09:20:44;;;;;;;3.63;2.30;;;;;;;6.15;100.00;97300.13;4994773;28;20224;-70
2020/12/24 09:23:12;;;;;;;2.33;2.13;;;;;;;6.19;100.00;97306.72;4997587;28;20208;-71
2020/12/24 09:25:41;;;;;;;2.90;1.73;;;;;;;6.06;100.00;97312.38;4989023;28;20215;-69
2020/12/24 09:28:19;;;;;;;2.63;2.43;;;;;;;6.22;100.00;97309.06;4991493;28;20340;-69
2020/12/24 09:30:46;;;;;;;1.77;1.40;;;;;;;6.30;100.00;97310.94;4992838;28;20201;-70
2020/12/24 09:33:15;;;;;;;2.17;1.23;;;;;;;6.08;100.00;97314.88;4989197;28;20217;-70
2020/12/24 09:35:43;;;;;;;1.70;1.60;;;;;;;6.07;100.00;97316.66;4989668;28;20206;-70
2020/12/24 09:38:10;;;;;;;1.63;1.53;;;;;;;6.04;100.00;97316.97;4993955;28;20279;-71
2020/12/24 09:40:38;;;;;;;1.60;1.43;;;;;;;5.96;100.00;97305.50;4992852;28;20261;-70
2020/12/24 09:43:06;;;;;;;2.10;1.90;;;;;;;5.99;100.00;97305.22;4989748;28;20342;-69
2020/12/24 09:45:33;;;;;;;2.13;1.80;;;;;;;6.00;100.00;97312.97;4988259;28;20227;-71
2020/12/24 09:48:00;;;;;;;2.47;1.87;;;;;;;6.05;100.00;97304.63;4995607;28;20236;-70
2020/12/24 09:50:27;;;;;;;2.87;2.20;;;;;;;6.05;100.00;97302.00;4995506;28;20213;-71
2020/12/24 09:52:54;;;;;;;3.73;2.10;;;;;;;6.05;100.00;97317.78;4991840;28;20210;-71
2020/12/24 09:55:22;;;;;;;1.83;1.73;;;;;;;5.89;100.00;97313.19;4991535;28;20213;-69
2020/12/24 09:57:49;;;;;;;2.00;1.63;;;;;;;5.73;100.00;97319.94;4987838;28;20268;-71
2020/12/24 10:00:17;;;;;;;2.87;2.10;;;;;;;5.57;100.00;97302.22;4989127;28;20226;-70
2020/12/24 10:02:44;;;;;;;4.30;1.90;;;;;;;5.53;100.00;97303.50;4988428;28;20208;-70
2020/12/24 10:05:11;;;;;;;1.73;1.60;;;;;;;5.44;100.00;97310.44;4996952;28;20213;-71
2020/12/24 10:07:38;;;;;;;2.50;1.47;;;;;;;5.44;100.00;97307.81;4987064;28;20575;-69
2020/12/24 10:10:05;;;;;;;4.23;1.63;;;;;;;5.53;100.00;97310.56;4977206;28;20652;-70
2020/12/24 10:12:32;;;;;;;3.07;2.20;;;;;;;5.35;100.00;97295.59;4992667;28;20237;-70
2020/12/24 10:14:59;;;;;;;3.13;1.50;;;;;;;5.36;100.00;97303.31;4993729;28;20223;-71
2020/12/24 10:17:28;;;;;;;3.23;1.93;;;;;;;5.37;100.00;97293.63;4990510;28;20717;-72
2020/12/24 10:19:55;;;;;;;3.33;2.07;;;;;;;5.38;100.00;97286.59;4990502;28;20225;-73
2020/12/24 10:22:23;;;;;;;1.80;1.50;;;;;;;5.43;100.00;97294.84;4997195;28;20213;-72
2020/12/24 10:24:52;;;;;;;1.40;1.30;;;;;;;5.44;100.00;97289.44;4997914;28;20625;-74
2020/12/24 10:27:19;;;;;;;2.47;1.53;;;;;;;5.49;100.00;97284.56;4993936;28;20209;-71
2020/12/24 10:29:47;;;;;;;2.60;1.67;;;;;;;5.43;100.00;97285.16;4992916;28;20224;-73
2020/12/24 10:32:14;;;;;;;3.57;1.77;;;;;;;5.45;100.00;97285.81;4992461;28;20205;-71
2020/12/24 10:34:41;;;;;;;1.90;1.80;;;;;;;5.49;100.00;97281.09;4987824;28;20213;-73
2020/12/24 10:37:10;;;;;;;3.07;2.20;;;;;;;5.42;100.00;97278.25;4986463;28;20236;-70
2020/12/24 10:39:36;;;;;;;2.80;1.40;;;;;;;5.42;100.00;97274.81;4986533;28;20551;-71
2020/12/24 10:42:04;;;;;;;2.17;1.53;;;;;;;5.41;100.00;97288.91;4988135;28;20224;-71
2020/12/24 10:44:31;;;;;;;2.17;1.50;;;;;;;5.39;100.00;97268.03;4979489;28;20205;-72
2020/12/24 10:46:59;;;;;;;3.67;2.13;;;;;;;5.41;100.00;97268.72;4982150;28;20209;-73
2020/12/24 10:49:27;;;;;;;2.27;1.20;;;;;;;5.35;100.00;97261.44;4983956;28;20257;-73
2020/12/24 10:51:55;;;;;;;2.03;1.50;;;;;;;5.69;100.00;97265.22;4986589;28;20209;-70
2020/12/24 10:54:22;;;;;;;2.53;2.37;;;;;;;5.79;100.00;97258.06;4989384;28;20586;-70
2020/12/24 10:56:50;;;;;;;3.87;2.33;;;;;;;5.59;100.00;97260.00;4984659;28;20571;-70
2020/12/24 10:59:17;;;;;;;4.73;2.00;;;;;;;5.53;100.00;97256.19;4987889;28;20237;-69
2020/12/24 11:01:46;;;;;;;3.60;1.53;;;;;;;5.58;100.00;97266.25;4985458;28;20206;-70
2020/12/24 11:04:13;;;;;;;2.97;1.43;;;;;;;5.62;100.00;97260.53;4987558;28;20208;-71
2020/12/24 11:06:42;;;;;;;2.70;1.80;;;;;;;5.56;100.00;97252.44;4982156;28;20210;-70
2020/12/24 11:09:11;;;;;;;1.47;1.37;;;;;;;5.50;100.00;97265.22;4985691;28;20727;-70
2020/12/24 11:11:38;;;;;;;2.80;1.53;;;;;;;5.47;100.00;97262.03;4988345;28;20375;-70
2020/12/24 11:14:05;;;;;;;3.10;1.93;;;;;;;5.40;100.00;97264.44;4993388;28;20692;-70
2020/12/24 11:16:32;;;;;;;4.40;1.47;;;;;;;5.36;100.00;97265.69;4997566;28;20243;-70
2020/12/24 11:18:59;;;;;;;1.60;1.17;;;;;;;5.30;100.00;97261.03;4993341;28;20254;-70
2020/12/24 11:21:30;;;;;;;3.50;1.57;;;;;;;5.34;100.00;97255.34;4996496;28;20300;-70
2020/12/24 11:23:57;;;;;;;5.13;2.70;;;;;;;5.22;100.00;97260.00;4992539;28;20301;-71
2020/12/24 11:26:26;;;;;;;3.53;3.00;;;;;;;5.21;100.00;97263.59;4993396;28;20710;-70
2020/12/24 11:28:53;;;;;;;2.23;2.03;;;;;;;5.13;100.00;97260.88;4997353;28;20244;-70
2020/12/24 11:31:24;;;;;;;7.27;3.90;;;;;;;5.19;100.00;97265.53;4996356;28;20724;-69
2020/12/24 11:33:51;;;;;;;18.83;10.53;;;;;;;5.14;100.00;97259.06;4990449;28;20586;-71
2020/12/24 11:36:18;;;;;;;3.87;2.77;;;;;;;5.11;100.00;97277.75;4994958;28;20212;-71
2020/12/24 11:38:45;;;;;;;2.93;1.77;;;;;;;5.09;100.00;97264.75;4994640;28;20240;-70
2020/12/24 11:41:15;;;;;;;2.37;1.70;;;;;;;5.11;100.00;97262.00;4990227;28;20202;-71